Time;durP1;ratioP1;P1;durP2;ratioP2;P2;SDS_P1;SDS_P2;PMS_P1;PMS_P2;Temp;Humidity;BMP_temperature;BMP_pressure;BME280_temperature;BME280_humidity;BME280_pressure;Samples;Min_cycle;Max_cycle;Signal;HPM_P1;HPM_P2
2024/01/28 00:02:00;;;;;;;14.60;3.80;;;;;;;10.28;100.00;100406.97;4943916;28;20038;-91
2024/01/28 00:04:29;;;;;;;14.13;3.30;;;;;;;10.25;100.00;100409.06;4940400;28;20050;-92
2024/01/28 00:10:30;;;;;;;10.63;3.80;;;;;;;10.32;100.00;100417.25;4956826;28;20109;-90
2024/01/28 00:13:34;;;;;;;12.27;3.47;;;;;;;10.34;100.00;100420.56;4938784;28;20043;-90
2024/01/28 00:16:03;;;;;;;12.85;3.40;;;;;;;10.32;100.00;100428.63;4934635;28;20097;-94
2024/01/28 00:18:35;;;;;;;9.47;2.83;;;;;;;10.26;100.00;100414.19;4954230;28;20038;-89
2024/01/28 00:21:10;;;;;;;12.32;3.50;;;;;;;10.35;100.00;100406.41;4955069;28;20438;-90
2024/01/28 00:23:47;;;;;;;;;;;;;;;;;;;;;
2024/01/28 00:27:07;;;;;;;20.70;5.70;;;;;;;10.41;100.00;100417.22;4957705;28;21556;-94
2024/01/28 00:29:38;;;;;;;16.25;4.85;;;;;;;10.34;100.00;100397.63;4934554;28;20042;-92
2024/01/28 00:32:04;;;;;;;11.30;3.83;;;;;;;10.32;100.00;100401.41;4924922;28;20102;-90
2024/01/28 00:34:33;;;;;;;11.73;3.88;;;;;;;10.38;100.00;100398.19;4942065;28;20034;-85
2024/01/28 00:37:08;;;;;;;10.40;3.67;;;;;;;10.31;100.00;100384.72;4918076;28;20039;-93
2024/01/28 00:39:52;;;;;;;16.60;4.00;;;;;;;10.40;100.00;100404.16;4938595;28;20049;-91
2024/01/28 00:42:38;;;;;;;16.58;4.10;;;;;;;10.35;100.00;100399.28;4935681;28;20039;-90
2024/01/28 00:45:10;;;;;;;14.23;3.85;;;;;;;10.33;100.00;100379.28;4932806;28;20047;-88
2024/01/28 00:47:39;;;;;;;11.15;3.83;;;;;;;10.33;100.00;100384.56;4958744;28;20039;-88
2024/01/28 00:50:31;;;;;;;16.75;4.70;;;;;;;10.35;100.00;100379.97;4934148;28;20035;-90
2024/01/28 00:57:41;;;;;;;;;;;;;;;;;;;;;
2024/01/28 01:01:19;;;;;;;20.77;3.92;;;;;;;10.34;100.00;100349.22;4948888;28;20034;-88
2024/01/28 01:03:51;;;;;;;19.30;3.90;;;;;;;10.39;100.00;100347.84;4938710;28;20086;-94
2024/01/28 01:06:19;;;;;;;16.05;4.22;;;;;;;10.34;100.00;100346.59;4956153;28;20068;-88
2024/01/28 01:08:48;;;;;;;17.77;4.45;;;;;;;10.32;100.00;100338.81;4924291;28;20043;-91
2024/01/28 01:11:56;;;;;;;14.93;4.63;;;;;;;10.37;100.00;100341.84;4868595;29;20097;-90
2024/01/28 01:15:04;;;;;;;18.23;5.20;;;;;;;10.39;100.00;100336.44;4944139;28;20125;-93
2024/01/28 01:18:00;;;;;;;19.90;5.07;;;;;;;10.37;100.00;100341.00;4940045;28;20039;-92
2024/01/28 01:28:35;;;;;;;23.48;5.57;;;;;;;10.43;100.00;100328.06;4973198;28;20042;-94
2024/01/28 01:31:05;;;;;;;26.40;6.35;;;;;;;10.44;100.00;100302.47;4933461;28;20493;-87
2024/01/28 01:34:14;;;;;;;12.82;3.50;;;;;;;10.42;100.00;100304.44;4941442;28;20502;-90
2024/01/28 01:37:05;;;;;;;14.32;3.50;;;;;;;10.44;100.00;100307.75;4885191;29;20133;-88
2024/01/28 01:39:52;;;;;;;22.23;3.85;;;;;;;10.46;100.00;100307.63;4914731;29;20043;-92
2024/01/28 01:42:43;;;;;;;13.80;4.43;;;;;;;10.46;100.00;100304.97;4955096;28;20054;-91
2024/01/28 01:49:27;;;;;;;14.65;3.65;;;;;;;10.37;100.00;100296.94;4944356;28;20068;-93
2024/01/28 01:55:58;;;;;;;17.73;4.20;;;;;;;10.47;100.00;100283.72;4861362;29;20045;-91
2024/01/28 02:03:12;;;;;;;17.92;4.30;;;;;;;10.40;100.00;100266.78;4849880;29;20057;-92
2024/01/28 02:05:43;;;;;;;20.50;3.58;;;;;;;10.34;100.00;100267.34;4938145;28;20117;-89
2024/01/28 02:08:12;;;;;;;28.27;4.85;;;;;;;10.42;100.00;100267.44;4931619;28;20042;-93
2024/01/28 02:10:47;;;;;;;25.52;4.07;;;;;;;10.39;100.00;100250.09;4940970;29;20423;-93
2024/01/28 02:13:55;;;;;;;;;;;;;;;;;;;;;
2024/01/28 02:16:52;;;;;;;15.65;4.28;;;;;;;10.45;100.00;100253.94;4955083;28;20043;-94
2024/01/28 02:19:28;;;;;;;16.58;3.80;;;;;;;10.41;100.00;100244.66;4903785;29;20279;-91
2024/01/28 02:21:54;;;;;;;19.35;3.95;;;;;;;10.37;100.00;100251.19;4907358;28;20516;-92
2024/01/28 02:28:40;;;;;;;15.80;3.80;;;;;;;10.35;100.00;100237.31;4955403;28;20037;-93
2024/01/28 02:31:59;;;;;;;21.60;3.45;;;;;;;10.34;100.00;100233.00;4919947;29;20044;-95
2024/01/28 02:35:09;;;;;;;26.13;3.80;;;;;;;10.26;100.00;100216.09;4955333;28;20065;-92
2024/01/28 02:37:50;;;;;;;19.10;4.10;;;;;;;10.26;100.00;100218.72;4924467;29;20051;-92
2024/01/28 02:40:21;;;;;;;16.35;4.13;;;;;;;10.24;100.00;100212.75;4941223;28;20039;-92
2024/01/28 02:43:44;;;;;;;16.77;4.05;;;;;;;10.29;100.00;100202.56;4940816;29;20066;-89
2024/01/28 02:46:14;;;;;;;17.23;4.50;;;;;;;10.22;100.00;100206.81;4936224;28;20062;-91
2024/01/28 02:52:08;;;;;;;17.77;4.18;;;;;;;10.27;100.00;100203.72;4937304;29;20035;-94
2024/01/28 02:54:40;;;;;;;25.60;4.03;;;;;;;10.23;100.00;100213.72;4864500;29;20092;-94
2024/01/28 02:57:31;;;;;;;17.40;4.13;;;;;;;10.27;100.00;100223.00;4830863;29;20177;-88
2024/01/28 03:00:19;;;;;;;13.60;3.40;;;;;;;10.33;100.00;100223.41;4893790;29;20055;-91
2024/01/28 03:02:45;;;;;;;27.83;3.88;;;;;;;10.31;100.00;100213.00;4904699;28;20047;-89
2024/01/28 03:06:00;;;;;;;16.98;3.63;;;;;;;10.36;100.00;100197.53;4942136;28;20126;-90
2024/01/28 03:09:04;;;;;;;17.55;4.75;;;;;;;10.36;100.00;100180.84;4954702;28;20725;-91
2024/01/28 03:15:41;;;;;;;17.50;3.33;;;;;;;10.32;100.00;100161.81;4769254;29;20039;-95
2024/01/28 03:22:31;;;;;;;15.48;3.17;;;;;;;10.21;100.00;100162.84;4845973;29;20066;-95
2024/01/28 03:25:20;;;;;;;25.17;4.60;;;;;;;10.34;100.00;100159.03;4806097;29;20529;-95
2024/01/28 03:28:35;;;;;;;20.65;3.90;;;;;;;10.29;100.00;100128.59;4834585;29;20084;-96
2024/01/28 03:31:23;;;;;;;24.67;4.18;;;;;;;10.25;100.00;100132.53;4814400;29;20050;-96
2024/01/28 03:33:53;;;;;;;21.73;4.40;;;;;;;10.25;100.00;100129.06;4817660;29;20435;-93
2024/01/28 03:36:40;;;;;;;20.67;4.03;;;;;;;10.24;100.00;100119.50;4859431;29;20044;-95
2024/01/28 03:39:14;;;;;;;16.63;4.22;;;;;;;10.16;100.00;100109.69;4866231;29;20044;-95
2024/01/28 03:41:53;;;;;;;19.42;4.03;;;;;;;10.28;100.00;100105.81;4872598;29;20088;-95
2024/01/28 03:44:24;;;;;;;27.50;3.90;;;;;;;10.21;100.00;100101.31;4870888;29;20175;-96
2024/01/28 03:47:16;;;;;;;22.95;3.97;;;;;;;10.24;100.00;100103.63;4918225;29;20052;-95
2024/01/28 03:49:58;;;;;;;20.33;3.53;;;;;;;10.21;100.00;100112.66;4931592;29;20078;-96
2024/01/28 03:52:46;;;;;;;21.48;4.10;;;;;;;10.22;100.00;100117.00;4928637;29;20039;-95
2024/01/28 03:55:43;;;;;;;22.13;4.03;;;;;;;10.28;100.00;100123.47;4944258;29;20093;-95
2024/01/28 03:58:27;;;;;;;16.38;3.67;;;;;;;10.19;100.00;100104.09;4928926;29;20481;-95
2024/01/28 04:01:11;;;;;;;32.30;5.30;;;;;;;10.22;100.00;100113.50;4944571;29;20031;-96
2024/01/28 04:03:40;;;;;;;23.55;5.68;;;;;;;10.25;100.00;100111.41;4924507;29;20051;-96
2024/01/28 04:06:06;;;;;;;26.17;4.55;;;;;;;10.24;100.00;100106.28;4904895;29;20039;-95
2024/01/28 04:08:38;;;;;;;31.77;4.88;;;;;;;10.25;100.00;100102.66;4912913;29;20071;-95
2024/01/28 04:11:19;;;;;;;27.65;4.32;;;;;;;10.33;100.00;100097.44;4936344;29;20043;-96
2024/01/28 04:14:15;;;;;;;23.67;4.47;;;;;;;10.32;100.00;100094.97;4931535;28;20061;-96
2024/01/28 04:16:53;;;;;;;23.88;4.40;;;;;;;10.24;100.00;100107.09;4923176;29;20039;-96
2024/01/28 04:19:20;;;;;;;37.13;5.15;;;;;;;10.29;100.00;100096.91;4932798;29;20067;-96
2024/01/28 04:22:03;;;;;;;26.38;4.65;;;;;;;10.36;100.00;100101.59;4914306;29;20051;-96
2024/01/28 04:24:30;;;;;;;29.63;6.05;;;;;;;10.33;100.00;100096.59;4919566;29;20043;-96
2024/01/28 04:27:07;;;;;;;35.67;4.93;;;;;;;10.36;100.00;100085.72;4931677;29;20070;-96
2024/01/28 04:29:37;;;;;;;21.27;4.25;;;;;;;10.33;100.00;100076.31;4915571;29;20058;-96
2024/01/28 04:32:12;;;;;;;20.17;4.82;;;;;;;10.20;100.00;100074.03;4930670;29;20057;-95
2024/01/28 04:34:50;;;;;;;25.67;4.68;;;;;;;10.18;100.00;100081.28;4911037;28;20078;-96
2024/01/28 04:38:15;;;;;;;29.77;6.00;;;;;;;10.18;100.00;100087.41;4929479;29;20047;-96
2024/01/28 04:41:04;;;;;;;27.50;5.55;;;;;;;10.14;100.00;100078.13;4928913;29;20035;-93
2024/01/28 04:44:10;;;;;;;31.15;5.35;;;;;;;10.18;100.00;100082.13;4923582;28;20050;-96
2024/01/28 04:46:45;;;;;;;23.80;4.57;;;;;;;10.17;100.00;100077.00;4915423;29;20047;-96
2024/01/28 04:49:26;;;;;;;31.17;5.68;;;;;;;10.22;100.00;100079.19;4935595;28;20039;-96
2024/01/28 04:52:06;;;;;;;33.72;4.85;;;;;;;10.21;100.00;100073.06;4952205;28;20043;-93
2024/01/28 04:54:58;;;;;;;32.63;5.20;;;;;;;10.25;100.00;100076.22;4953266;28;20051;-96
2024/01/28 05:00:57;;;;;;;25.52;5.25;;;;;;;10.24;100.00;100064.81;4975405;28;20043;-96
2024/01/28 05:03:44;;;;;;;27.15;4.65;;;;;;;10.21;100.00;100054.56;4930661;29;20241;-96
2024/01/28 05:06:34;;;;;;;32.83;6.00;;;;;;;10.15;100.00;100055.19;4927120;28;20046;-96
2024/01/28 05:09:31;;;;;;;39.33;7.00;;;;;;;10.09;100.00;100053.13;4944223;28;20046;-96
2024/01/28 05:12:02;;;;;;;37.47;4.95;;;;;;;10.03;100.00;100050.13;4941387;28;20050;-96
2024/01/28 05:14:31;;;;;;;25.15;5.50;;;;;;;10.00;100.00;100045.13;4953384;28;20070;-96
2024/01/28 05:17:29;;;;;;;36.72;5.88;;;;;;;10.02;100.00;100037.06;4950083;28;20038;-96
2024/01/28 05:20:17;;;;;;;21.88;5.35;;;;;;;10.03;100.00;100034.28;4949076;28;20078;-96
2024/01/28 05:22:51;;;;;;;33.80;5.47;;;;;;;9.97;100.00;100029.59;4943787;28;20035;-96
2024/01/28 05:25:23;;;;;;;36.35;5.38;;;;;;;9.98;100.00;100035.72;4936211;28;20387;-96
2024/01/28 05:28:01;;;;;;;36.75;6.45;;;;;;;9.98;100.00;100033.06;4966646;28;20038;-96
2024/01/28 05:30:39;;;;;;;30.95;5.82;;;;;;;10.03;100.00;100038.75;4952939;28;20038;-96
2024/01/28 05:33:09;;;;;;;37.72;6.57;;;;;;;10.00;100.00;100029.28;4952470;28;20054;-96
2024/01/28 05:35:41;;;;;;;36.95;6.10;;;;;;;10.03;100.00;100017.63;4944819;28;20040;-96
2024/01/28 05:38:22;;;;;;;46.60;6.63;;;;;;;10.01;100.00;100016.94;4978176;28;20043;-96
2024/01/28 05:41:08;;;;;;;34.97;6.13;;;;;;;10.00;100.00;100017.91;4958989;28;20037;-96
2024/01/28 05:43:49;;;;;;;38.95;8.20;;;;;;;10.04;100.00;100017.47;4940454;28;20063;-96
2024/01/28 05:46:42;;;;;;;33.38;7.00;;;;;;;10.07;100.00;100005.75;4950530;29;20050;-96
2024/01/28 05:49:22;;;;;;;41.30;7.38;;;;;;;10.05;100.00;100000.63;4933030;28;20039;-96
2024/01/28 05:51:51;;;;;;;49.83;7.25;;;;;;;10.09;100.00;99981.84;4928305;29;20047;-95
2024/01/28 05:54:30;;;;;;;40.42;6.88;;;;;;;10.03;100.00;99973.53;4946830;28;20051;-96
2024/01/28 05:57:03;;;;;;;41.60;6.53;;;;;;;10.05;100.00;99976.03;4947997;28;20066;-96
2024/01/28 05:59:39;;;;;;;53.42;7.55;;;;;;;10.00;100.00;99979.13;4941848;28;20039;-95
2024/01/28 06:02:24;;;;;;;49.20;6.43;;;;;;;10.02;100.00;99973.69;4957735;28;20031;-95
2024/01/28 06:05:30;;;;;;;40.60;7.80;;;;;;;9.98;100.00;99977.63;4947586;29;20096;-96
2024/01/28 06:08:00;;;;;;;39.22;7.47;;;;;;;9.94;100.00;99974.47;4944802;28;20036;-95
2024/01/28 06:10:42;;;;;;;42.05;6.53;;;;;;;9.94;100.00;99969.19;4941905;28;20106;-96
2024/01/28 06:13:14;;;;;;;38.92;6.20;;;;;;;9.87;100.00;99947.00;4942713;28;20042;-96
2024/01/28 06:15:44;;;;;;;33.17;6.40;;;;;;;9.92;100.00;99953.50;4965774;28;20039;-91
2024/01/28 06:18:12;;;;;;;39.05;6.80;;;;;;;9.84;100.00;99929.69;4914767;29;20038;-96
2024/01/28 06:20:56;;;;;;;28.90;5.50;;;;;;;9.91;100.00;99933.34;4914584;29;20497;-96
2024/01/28 06:23:26;;;;;;;26.70;4.97;;;;;;;9.88;100.00;99940.75;4923426;28;20045;-94
2024/01/28 06:26:05;;;;;;;44.53;7.13;;;;;;;9.86;100.00;99930.34;4962737;28;20039;-95
2024/01/28 06:28:45;;;;;;;33.53;5.82;;;;;;;9.80;100.00;99933.59;4936274;28;20047;-94
2024/01/28 06:31:14;;;;;;;44.45;6.60;;;;;;;9.82;100.00;99949.28;4931705;29;20489;-96
2024/01/28 06:33:52;;;;;;;45.03;5.93;;;;;;;9.85;100.00;99948.97;4941327;28;20031;-95
2024/01/28 06:36:31;;;;;;;37.38;6.10;;;;;;;9.79;100.00;99942.50;4920443;29;20040;-95
2024/01/28 06:39:08;;;;;;;32.28;5.70;;;;;;;9.84;100.00;99955.25;4923474;29;20035;-94
2024/01/28 06:41:51;;;;;;;38.35;5.47;;;;;;;9.72;100.00;99941.44;4939863;29;20039;-95
2024/01/28 06:44:23;;;;;;;32.20;5.47;;;;;;;9.80;100.00;99941.50;4917451;29;20058;-96
2024/01/28 06:47:08;;;;;;;32.22;6.10;;;;;;;9.75;100.00;99910.28;4943962;29;20039;-95
2024/01/28 06:49:46;;;;;;;32.17;5.97;;;;;;;9.79;100.00;99924.03;4921904;29;20039;-96
2024/01/28 06:52:29;;;;;;;39.53;7.75;;;;;;;9.79;100.00;99924.03;4930558;28;20055;-94
2024/01/28 06:55:26;;;;;;;33.95;6.75;;;;;;;9.72;100.00;99910.59;4957540;28;20046;-95
2024/01/28 06:57:52;;;;;;;42.03;7.07;;;;;;;9.70;100.00;99902.00;4932893;29;20046;-95
2024/01/28 07:00:31;;;;;;;44.13;7.05;;;;;;;9.74;100.00;99916.56;4960732;28;20043;-96
2024/01/28 07:03:01;;;;;;;32.22;6.70;;;;;;;9.74;100.00;99918.38;4944388;28;20066;-96
2024/01/28 07:05:52;;;;;;;37.88;7.03;;;;;;;9.75;100.00;99883.06;4943667;29;20135;-92
2024/01/28 07:08:30;;;;;;;53.23;7.73;;;;;;;9.71;100.00;99913.38;4917827;29;20082;-95
2024/01/28 07:10:58;;;;;;;41.40;8.10;;;;;;;9.73;100.00;99895.59;4946943;29;20058;-89
2024/01/28 07:13:24;;;;;;;55.47;8.77;;;;;;;9.71;100.00;99884.38;4938617;28;20035;-95
2024/01/28 07:15:59;;;;;;;47.88;7.65;;;;;;;9.70;100.00;99899.34;4932613;28;20049;-91
2024/01/28 07:18:27;;;;;;;43.78;8.95;;;;;;;9.69;100.00;99892.44;4956727;28;20038;-93
2024/01/28 07:20:53;;;;;;;27.55;5.97;;;;;;;9.66;100.00;99879.53;4963452;28;20043;-90
2024/01/28 07:23:19;;;;;;;31.77;6.40;;;;;;;9.62;100.00;99868.44;4955867;28;20111;-88
2024/01/28 07:25:45;;;;;;;42.58;7.28;;;;;;;9.63;100.00;99859.56;4928242;28;20043;-94
2024/01/28 07:28:15;;;;;;;44.65;7.20;;;;;;;9.64;100.00;99850.66;4944340;28;20404;-91
2024/01/28 07:30:41;;;;;;;22.65;5.78;;;;;;;9.64;100.00;99860.38;4927443;28;20129;-91
2024/01/28 07:33:11;;;;;;;41.28;8.15;;;;;;;9.64;100.00;99863.88;4924851;28;20121;-89
2024/01/28 07:35:39;;;;;;;27.52;5.75;;;;;;;9.58;100.00;99850.44;4937641;28;20632;-89
2024/01/28 07:38:05;;;;;;;30.27;4.88;;;;;;;9.59;100.00;99857.41;4936972;29;20046;-90
2024/01/28 07:40:31;;;;;;;39.15;6.28;;;;;;;9.63;100.00;99856.09;4940296;28;20039;-89
2024/01/28 07:43:13;;;;;;;38.67;6.10;;;;;;;9.58;100.00;99855.72;4946921;28;20043;-93
2024/01/28 07:45:39;;;;;;;40.08;6.07;;;;;;;9.57;100.00;99848.78;4938294;28;20046;-89
2024/01/28 07:48:08;;;;;;;29.08;4.93;;;;;;;9.55;100.00;99848.94;4927903;28;20037;-90
2024/01/28 07:50:43;;;;;;;35.10;6.18;;;;;;;9.61;100.00;99829.03;4927226;28;20069;-93
2024/01/28 07:53:12;;;;;;;32.30;6.10;;;;;;;9.55;100.00;99833.97;4939478;28;20034;-89
2024/01/28 07:55:41;;;;;;;28.85;5.72;;;;;;;9.62;100.00;99852.63;4950997;28;20095;-90
2024/01/28 07:58:10;;;;;;;24.15;5.35;;;;;;;9.60;100.00;99857.25;4923225;29;20061;-91
2024/01/28 08:00:39;;;;;;;34.75;7.20;;;;;;;9.62;100.00;99865.00;4924866;29;20043;-95
2024/01/28 08:03:10;;;;;;;35.95;5.78;;;;;;;9.59;100.00;99878.50;4937698;28;20035;-91
2024/01/28 08:05:36;;;;;;;35.17;6.13;;;;;;;9.63;100.00;99880.69;4942760;28;20062;-93
2024/01/28 08:08:12;;;;;;;44.22;7.53;;;;;;;9.67;100.00;99884.66;4947872;29;20266;-96
2024/01/28 08:10:51;;;;;;;37.88;5.70;;;;;;;9.66;100.00;99883.03;4947911;28;20491;-91
2024/01/28 08:13:21;;;;;;;28.33;7.32;;;;;;;9.65;100.00;99878.69;4957530;28;20034;-86
2024/01/28 08:15:48;;;;;;;30.48;6.18;;;;;;;9.67;100.00;99884.66;4939023;28;20037;-94
2024/01/28 08:18:38;;;;;;;37.95;6.85;;;;;;;9.75;100.00;99881.25;4928600;28;20157;-93
2024/01/28 08:21:13;;;;;;;35.90;6.47;;;;;;;9.75;100.00;99896.25;4943378;28;20071;-93
2024/01/28 08:23:48;;;;;;;33.60;7.47;;;;;;;9.73;100.00;99885.03;4970152;28;20050;-93
2024/01/28 08:26:18;;;;;;;40.22;6.32;;;;;;;9.74;100.00;99881.41;4919417;28;20066;-93
2024/01/28 08:28:54;;;;;;;32.60;6.22;;;;;;;9.82;100.00;99851.63;4925734;28;20030;-90
2024/01/28 08:36:05;;;;;;;41.67;6.90;;;;;;;9.77;100.00;99866.13;4927337;28;20096;-96
2024/01/28 08:39:40;;;;;;;45.88;8.52;;;;;;;9.78;100.00;99902.06;4958951;28;20049;-94
2024/01/28 08:42:30;;;;;;;35.63;6.28;;;;;;;9.74;100.00;99926.28;4966852;28;20042;-95
2024/01/28 08:45:26;;;;;;;32.55;6.32;;;;;;;9.82;100.00;99931.63;4948208;28;20050;-93
2024/01/28 08:49:15;;;;;;;;;;;;;;;;;;;;;
2024/01/28 08:57:29;;;;;;;;;;;;;;;;;;;;;
2024/01/28 09:00:31;;;;;;;29.33;5.60;;;;;;;9.92;100.00;99884.03;4822930;29;20453;-92
2024/01/28 09:03:30;;;;;;;28.05;5.47;;;;;;;9.86;100.00;99874.91;4793977;29;20058;-95
2024/01/28 09:06:44;;;;;;;35.87;6.90;;;;;;;9.91;100.00;99867.38;4795295;29;20074;-95
2024/01/28 09:09:48;;;;;;;35.72;7.03;;;;;;;9.88;100.00;99865.03;4835252;29;20086;-95
2024/01/28 09:12:39;;;;;;;34.40;6.47;;;;;;;9.85;100.00;99846.03;4899304;29;20051;-94
2024/01/28 09:15:35;;;;;;;38.28;6.10;;;;;;;9.89;100.00;99840.28;4885886;29;20079;-96
2024/01/28 09:18:42;;;;;;;31.25;6.40;;;;;;;9.88;100.00;99838.63;4882189;29;20036;-94
2024/01/28 09:21:49;;;;;;;39.58;6.43;;;;;;;9.86;100.00;99831.88;4874940;29;20078;-95
2024/01/28 09:25:13;;;;;;;33.00;6.38;;;;;;;9.92;100.00;99824.13;4862674;29;21013;-96
2024/01/28 09:27:49;;;;;;;32.50;6.90;;;;;;;9.97;100.00;99812.28;4879712;29;20044;-94
2024/01/28 09:30:20;;;;;;;41.50;7.38;;;;;;;9.95;100.00;99803.69;4885394;29;20045;-93
2024/01/28 09:33:37;;;;;;;31.67;6.93;;;;;;;9.98;100.00;99814.78;4900933;29;20515;-95
2024/01/28 09:36:18;;;;;;;;;;;;;;;9.94;100.00;99805.50;4886398;29;20501;-93
2024/01/28 09:42:28;;;;;;;36.95;5.80;;;;;;;9.99;100.00;99800.59;4900498;29;20063;-96
2024/01/28 09:45:19;;;;;;;34.70;6.18;;;;;;;9.98;100.00;99785.75;4884808;29;20047;-95
2024/01/28 09:48:08;;;;;;;49.78;7.45;;;;;;;10.02;100.00;99779.16;4908704;29;20047;-96
2024/01/28 09:50:50;;;;;;;38.15;6.70;;;;;;;9.94;100.00;99779.09;4911864;29;20110;-95
2024/01/28 09:53:33;;;;;;;39.42;7.47;;;;;;;9.97;100.00;99785.91;4913875;29;20039;-93
2024/01/28 10:01:08;;;;;;;51.85;7.68;;;;;;;10.06;100.00;99758.53;4926902;28;20509;-95
2024/01/28 10:03:43;;;;;;;51.65;7.50;;;;;;;10.04;100.00;99753.41;4939087;28;20038;-94
2024/01/28 10:06:48;;;;;;;;;;;;;;;;;;;;;
2024/01/28 10:10:03;;;;;;;30.92;6.75;;;;;;;10.05;100.00;99755.06;4955478;28;20058;-93
2024/01/28 10:12:57;;;;;;;31.13;6.63;;;;;;;10.12;100.00;99775.56;4941454;28;20071;-92
2024/01/28 10:16:09;;;;;;;;;;;;;;;;;;;;;
2024/01/28 10:26:54;;;;;;;;;;;;;;;;;;;;;
2024/01/28 10:30:27;;;;;;;38.90;7.10;;;;;;;10.25;100.00;99762.75;4842746;29;20179;-92
2024/01/28 10:33:52;;;;;;;42.20;7.82;;;;;;;10.31;100.00;99763.91;4845204;29;20051;-92
2024/01/28 10:36:39;;;;;;;42.00;7.43;;;;;;;10.31;100.00;99740.16;4937190;28;20104;-94
2024/01/28 10:44:13;;;;;;;40.80;9.70;;;;;;;10.45;100.00;99741.34;4972339;28;20031;-94
2024/01/28 10:47:14;;;;;;;43.70;8.55;;;;;;;10.45;100.00;99735.25;4949532;28;20050;-94
2024/01/28 10:50:05;;;;;;;49.33;9.50;;;;;;;10.45;100.00;99722.84;4943092;28;20042;-95
2024/01/28 10:52:44;;;;;;;35.95;7.00;;;;;;;10.50;100.00;99720.59;4941492;28;20031;-94
2024/01/28 10:55:32;;;;;;;;;;;;;;;;;;;;;
2024/01/28 10:58:35;;;;;;;39.35;7.03;;;;;;;10.43;100.00;99717.72;4963417;28;20034;-95
2024/01/28 11:01:35;;;;;;;40.42;8.55;;;;;;;10.47;100.00;99741.22;4957414;28;20038;-94
2024/01/28 11:04:50;;;;;;;36.33;7.80;;;;;;;10.45;100.00;99753.75;4955800;28;20121;-94
2024/01/28 11:11:03;;;;;;;37.17;8.25;;;;;;;10.45;100.00;99727.31;4974378;28;20045;-95
2024/01/28 11:14:13;;;;;;;41.55;8.02;;;;;;;10.46;100.00;99734.25;4931958;28;20035;-94
2024/01/28 11:16:46;;;;;;;40.35;8.48;;;;;;;10.47;100.00;99712.16;4952587;28;20047;-93
2024/01/28 11:19:46;;;;;;;33.05;7.95;;;;;;;10.54;100.00;99711.34;4940441;29;20038;-92
2024/01/28 11:22:21;;;;;;;39.50;8.45;;;;;;;10.60;100.00;99722.25;4941408;28;20042;-92
2024/01/28 11:25:09;;;;;;;42.55;8.45;;;;;;;10.64;100.00;99736.78;4953927;28;20041;-94
2024/01/28 11:27:38;;;;;;;44.58;8.88;;;;;;;10.72;100.00;99730.72;4943427;28;20485;-95
2024/01/28 11:30:18;;;;;;;34.75;7.18;;;;;;;10.77;100.00;99718.66;4929502;28;20049;-92
2024/01/28 11:32:47;;;;;;;26.70;6.22;;;;;;;10.82;100.00;99717.31;4940843;28;20062;-96
2024/01/28 11:35:36;;;;;;;35.60;7.55;;;;;;;10.87;100.00;99707.09;4946926;28;20077;-94
2024/01/28 11:38:15;;;;;;;30.38;6.50;;;;;;;10.97;100.00;99683.13;4942805;28;20045;-95
2024/01/28 11:41:03;;;;;;;25.08;6.93;;;;;;;10.94;100.00;99681.63;4939519;28;20050;-94
2024/01/28 11:43:37;;;;;;;32.53;8.45;;;;;;;11.04;100.00;99660.31;4944232;28;20444;-96
2024/01/28 11:46:09;;;;;;;43.15;9.30;;;;;;;11.08;100.00;99660.81;4936928;28;20066;-96
2024/01/28 11:48:35;;;;;;;41.45;7.70;;;;;;;11.03;100.00;99670.09;4923169;29;20056;-96
2024/01/28 11:51:04;;;;;;;28.65;7.00;;;;;;;11.09;100.00;99665.94;4946805;28;20039;-94
2024/01/28 11:53:33;;;;;;;40.20;8.98;;;;;;;11.09;100.00;99688.91;4926284;28;20038;-93
2024/01/28 11:56:10;;;;;;;30.27;7.95;;;;;;;11.17;100.00;99665.09;4923758;29;20047;-94
2024/01/28 11:58:42;;;;;;;34.60;7.57;;;;;;;11.16;100.00;99693.34;4927965;28;20030;-92
2024/01/28 12:01:10;;;;;;;33.95;8.77;;;;;;;11.21;100.00;99661.09;4946668;28;20039;-92
2024/01/28 12:03:39;;;;;;;36.88;9.23;;;;;;;11.14;100.00;99681.28;4925334;28;20059;-93
2024/01/28 12:06:05;;;;;;;33.03;7.60;;;;;;;11.20;100.00;99690.38;4940908;28;20135;-94
2024/01/28 12:08:31;;;;;;;33.55;9.13;;;;;;;11.21;100.00;99682.28;4952811;29;20053;-95
2024/01/28 12:11:04;;;;;;;32.22;8.00;;;;;;;11.26;100.00;99719.63;4922150;28;20475;-92
2024/01/28 12:13:29;;;;;;;35.28;10.18;;;;;;;11.21;100.00;99710.56;4904495;29;20102;-92
2024/01/28 12:15:59;;;;;;;35.00;8.45;;;;;;;11.31;100.00;99694.50;4936685;29;20031;-92
2024/01/28 12:18:34;;;;;;;37.70;9.00;;;;;;;11.35;100.00;99691.38;4907539;29;20509;-95
2024/01/28 12:21:04;;;;;;;37.00;7.97;;;;;;;11.30;100.00;99693.69;4922372;29;20055;-92
2024/01/28 12:23:40;;;;;;;37.05;8.30;;;;;;;11.38;100.00;99677.78;4919252;28;20031;-93
2024/01/28 12:26:37;;;;;;;43.00;9.35;;;;;;;11.41;100.00;99655.44;4935138;29;20465;-94
2024/01/28 12:29:05;;;;;;;30.17;7.90;;;;;;;11.34;100.00;99649.19;4937427;29;20031;-92
2024/01/28 12:31:34;;;;;;;32.35;9.02;;;;;;;11.36;100.00;99648.03;4904628;29;20046;-93
2024/01/28 12:33:59;;;;;;;30.55;8.57;;;;;;;11.39;100.00;99634.47;4907321;29;20133;-87
2024/01/28 12:36:25;;;;;;;29.63;7.30;;;;;;;11.44;100.00;99638.41;4929739;29;20043;-93
2024/01/28 12:38:52;;;;;;;42.05;7.82;;;;;;;11.44;100.00;99646.34;4905014;28;20038;-92
2024/01/28 12:41:21;;;;;;;35.25;8.57;;;;;;;11.53;100.00;99640.06;4924526;28;20034;-93
2024/01/28 12:43:52;;;;;;;31.95;8.20;;;;;;;11.57;100.00;99681.06;4921509;29;20041;-94
2024/01/28 12:46:18;;;;;;;32.05;8.23;;;;;;;11.62;100.00;99659.38;4920841;29;20046;-90
2024/01/28 12:48:44;;;;;;;38.97;9.77;;;;;;;11.61;100.00;99660.38;4939298;29;20035;-92
2024/01/28 12:51:10;;;;;;;44.42;8.48;;;;;;;11.70;100.00;99663.81;4916735;28;20035;-95
2024/01/28 12:53:41;;;;;;;44.50;10.82;;;;;;;11.75;100.00;99678.16;4919330;29;20535;-93
2024/01/28 12:56:08;;;;;;;39.58;9.40;;;;;;;11.72;100.00;99665.28;4917575;29;20062;-96
2024/01/28 12:58:33;;;;;;;36.15;9.20;;;;;;;11.79;100.00;99671.56;4914229;29;20489;-95
2024/01/28 13:01:01;;;;;;;36.88;8.82;;;;;;;11.73;100.00;99661.66;4934757;29;20027;-92
2024/01/28 13:03:37;;;;;;;32.33;7.88;;;;;;;11.83;100.00;99663.25;4921457;29;20042;-95
2024/01/28 13:06:03;;;;;;;55.97;9.63;;;;;;;11.75;100.00;99666.78;4908684;29;20035;-94
2024/01/28 13:12:33;;;;;;;48.72;10.00;;;;;;;11.80;100.00;99696.22;4929511;29;20126;-93
2024/01/28 13:15:44;;;;;;;51.28;10.82;;;;;;;11.79;100.00;99691.91;4947989;29;20086;-94
2024/01/28 13:18:44;;;;;;;54.40;11.00;;;;;;;11.86;100.00;99700.81;4917637;29;20097;-94
2024/01/28 13:21:36;;;;;;;38.03;9.48;;;;;;;11.81;100.00;99678.50;4922751;28;20043;-95
2024/01/28 13:24:44;;;;;;;43.40;9.70;;;;;;;11.88;100.00;99682.13;4928553;29;20044;-95
2024/01/28 13:27:26;;;;;;;;;;;;;;;;;;;;;
2024/01/28 13:30:08;;;;;;;54.05;13.15;;;;;;;11.85;100.00;99704.44;4925006;29;20421;-95
2024/01/28 13:36:35;;;;;;;;;;;;;;;11.72;100.00;99678.50;4947880;29;20039;-96
2024/01/28 13:39:22;;;;;;;44.70;14.25;;;;;;;11.77;100.00;99693.88;4920831;28;20373;-95
2024/01/28 13:42:14;;;;;;;52.50;12.32;;;;;;;11.79;100.00;99700.69;4924070;28;20489;-96
2024/01/28 13:44:56;;;;;;;;;;;;;;;;;;;;;
2024/01/28 13:47:47;;;;;;;38.45;10.40;;;;;;;11.82;100.00;99698.69;4934925;29;20040;-95
2024/01/28 14:02:12;;;;;;;34.40;9.10;;;;;;;11.87;100.00;99683.94;4932430;29;20056;-92
2024/01/28 14:57:49;;;;;;;40.35;8.98;;;;;;;11.82;100.00;99757.75;4955738;29;20039;-96
2024/01/28 15:01:14;;;;;;;44.28;11.43;;;;;;;11.93;100.00;99759.19;4948588;28;20043;-96
2024/01/28 15:04:11;;;;;;;44.08;11.80;;;;;;;11.93;100.00;99759.19;4930615;29;20137;-96
2024/01/28 15:07:08;;;;;;;47.05;12.90;;;;;;;11.99;100.00;99755.88;4946037;29;20051;-96
2024/01/28 15:13:37;;;;;;;40.28;11.82;;;;;;;11.99;100.00;99758.53;4981527;28;20040;-96
2024/01/28 15:16:19;;;;;;;36.72;11.88;;;;;;;11.93;100.00;99761.84;4934137;28;20039;-96
2024/01/28 15:19:14;;;;;;;47.22;10.18;;;;;;;12.00;100.00;99768.13;4962826;28;20046;-96
2024/01/28 15:22:27;;;;;;;38.72;9.43;;;;;;;12.03;100.00;99777.56;4958662;28;20110;-96